Latest Weather Observations for Port Augusta

IDS60801

Issued at 11:35 am CDT Wednesday 26 November 2014 (issued every 30 minutes, with the page automatically refreshed every 10 minutes)

About weather observations | Map of weather stations | Latest weather observations for SA | Other Formats
Station Details ID: 018201 Name: PORT AUGUSTA AERO Lat: -32.51 Lon: 137.72 Height: 13.97 m
Data from the previous 72 hours. | See also: Recent months at Port Augusta
Date/Time
CDT
Temp
°C
App
Temp
°C
Dew
Point
Rel
Hum
%
Delta-T
°C
Wind Press
QNH
hPa
Press
MSL
hPa
Rain
since 9 am
mm
Dir
 
Spd
km/h
Gust
km/h
Spd
kts
Gust
kts
26/11:30am 23.8 18.3 4.2 28 9.6 SE 22 30 12 16 1021.6 - 0.0
26/11:00am 22.9 18.0 3.9 29 9.2 SE 19 28 10 15 1021.8 - 0.0
26/10:30am 22.5 17.4 4.1 30 9.0 SSE 20 30 11 16 1021.9 - 0.0
26/10:00am 21.7 16.9 5.6 35 8.0 SE 20 30 11 16 1021.9 - 0.0
26/09:30am 20.5 15.7 5.7 38 7.3 SE 20 28 11 15 1022.1 - 0.0
26/09:00am 19.9 14.6 6.6 42 6.7 SSE 24 30 13 16 1022.3 1022.3 0.0
26/08:30am 18.7 14.8 8.7 52 5.2 SE 19 24 10 13 1021.9 - 0.0
26/08:00am 18.2 13.4 7.3 49 5.5 SE 22 28 12 15 1021.6 - 0.0
26/07:30am 17.1 12.3 9.0 59 4.2 SSE 24 30 13 16 1021.3 - 0.0
26/07:00am 16.4 12.2 8.4 59 4.1 SSE 20 28 11 15 1020.9 - 0.0
26/06:30am 15.5 11.2 7.0 57 4.2 SSE 19 22 10 12 1020.6 - 0.0
26/06:00am 15.1 10.7 6.7 57 4.1 SSE 19 24 10 13 1020.1 1020.1 0.0
26/05:30am 15.0 11.5 7.1 59 3.9 SSE 15 19 8 10 1019.9 - 0.0
26/05:00am 15.3 11.1 8.3 63 3.5 SSE 20 26 11 14 1020.0 - 0.0
26/04:30am 15.3 10.9 8.8 65 3.3 SSE 22 30 12 16 1019.9 - 0.0
26/04:00am 15.7 11.7 8.9 64 3.5 SSE 20 26 11 14 1020.0 - 0.0
26/03:30am 15.7 10.5 8.9 64 3.5 SSE 26 33 14 18 1020.0 - 0.0
26/03:00am 15.8 11.0 8.8 63 3.6 S 24 32 13 17 1020.1 1020.1 0.0
26/02:30am 16.1 11.3 8.8 62 3.7 S 24 32 13 17 1020.2 - 0.0
26/02:00am 16.2 10.2 8.7 61 3.8 S 30 37 16 20 1020.2 - 0.0
26/01:30am 16.9 11.5 8.1 56 4.5 S 26 37 14 20 1020.4 - 0.0
26/01:00am 16.8 11.8 8.0 56 4.4 S 24 32 13 17 1020.6 - 0.0
26/12:30am 17.1 12.3 7.2 52 4.9 S 22 32 12 17 1020.8 - 0.0
26/12:00am 17.3 11.8 7.6 53 4.9 SSE 26 37 14 20 1021.0 1021.0 0.0
 
Date/Time
CDT
Temp
°C
App
Temp
°C
Dew
Point
Rel
Hum
%
Delta-T
°C
Wind Press
QNH
hPa
Press
MSL
hPa
Rain
since 9 am
mm
Dir
 
Spd
km/h
Gust
km/h
Spd
kts
Gust
kts
25/11:30pm 17.9 11.2 7.3 50 5.3 SSE 32 43 17 23 1021.2 - 0.0
25/11:00pm 18.1 11.7 8.4 53 5.0 SSE 32 39 17 21 1021.1 - 0.0
25/10:30pm 18.4 11.1 8.9 54 4.9 SSE 37 48 20 26 1020.9 - 0.0
25/10:15pm 18.4 10.9 9.5 56 4.7 SSE 39 57 21 31 1020.8 - 0.0
25/10:00pm 18.7 11.3 9.8 56 4.7 S 39 50 21 27 1020.6 - 0.0
25/09:30pm 18.9 12.6 7.4 47 5.8 SSE 30 39 16 21 1020.7 - 0.0
25/09:00pm 19.0 13.0 5.5 41 6.6 SSE 26 33 14 18 1020.4 1020.4 0.0
25/08:30pm 19.1 12.1 5.9 42 6.5 SSE 32 46 17 25 1020.1 - 0.0
25/08:00pm 19.5 12.4 6.6 43 6.4 S 33 46 18 25 1020.1 - 0.0
25/07:30pm 20.3 13.4 6.6 41 6.9 SSE 32 46 17 25 1019.9 - 0.0
25/07:00pm 21.6 14.5 6.3 37 7.7 S 33 43 18 23 1019.7 - 0.0
25/06:30pm 21.8 14.4 6.9 38 7.6 SSE 35 46 19 25 1019.3 - 0.0
25/06:00pm 22.7 15.3 6.9 36 8.1 SSE 35 48 19 26 1019.2 1019.2 0.0
25/05:30pm 23.4 16.6 7.5 36 8.3 SSE 33 52 18 28 1019.2 - 0.0
25/05:27pm 22.7 15.6 6.5 35 8.3 SE 33 52 18 28 1019.2 - 0.0
25/05:00pm 23.4 16.6 7.9 37 8.2 SE 33 44 18 24 1019.1 - 0.0
25/04:30pm 23.8 16.7 6.6 33 8.9 SE 33 46 18 25 1019.2 - 0.0
25/04:00pm 23.7 16.6 5.6 31 9.2 SE 32 41 17 22 1019.5 - 0.0
25/03:30pm 23.8 17.4 5.2 30 9.3 SE 28 39 15 21 1019.8 - 0.0
25/03:00pm 22.9 16.1 4.9 31 8.9 SE 30 37 16 20 1020.1 1020.1 0.0
25/02:30pm 24.0 18.0 5.4 30 9.4 SE 26 35 14 19 1020.4 - 0.0
25/02:00pm 23.1 18.3 4.6 30 9.1 SSE 19 30 10 16 1020.8 - 0.0
25/01:30pm 23.1 18.1 4.6 30 9.1 S 20 28 11 15 1021.1 - 0.0
25/01:00pm 22.4 16.6 4.5 31 8.8 SSE 24 37 13 20 1021.4 - 0.0
25/12:30pm 21.1 15.5 3.3 31 8.5 SSE 22 33 12 18 1021.9 - 0.0
25/12:00pm 21.4 15.4 3.6 31 8.5 SSE 24 37 13 20 1022.1 1022.1 0.0
25/11:30am 20.5 13.4 3.7 33 8.0 S 30 41 16 22 1022.2 - 0.0
25/11:00am 19.8 12.8 4.3 36 7.4 SSE 30 39 16 21 1022.4 - 0.0
25/10:30am 19.1 13.1 5.2 40 6.8 SE 26 35 14 19 1022.7 - 0.0
25/10:00am 18.5 12.3 4.3 39 6.8 SSE 26 37 14 20 1022.6 - 0.0
25/09:30am 18.3 13.0 4.8 41 6.5 SE 22 32 12 17 1022.7 - 0.0
25/09:00am 17.5 12.1 6.4 48 5.4 SE 24 35 13 19 1022.7 1022.7 0.0
25/08:30am 16.4 11.5 6.8 53 4.7 SE 22 28 12 15 1022.8 - 0.0
25/08:00am 16.6 11.2 7.8 56 4.4 SSE 26 33 14 18 1022.6 - 0.0
25/07:30am 15.3 10.5 7.3 59 4.0 SE 22 30 12 16 1022.5 - 0.0
25/07:00am 14.1 10.5 6.9 62 3.5 SE 15 20 8 11 1022.4 - 0.0
25/06:30am 12.9 9.7 6.9 67 2.9 SE 13 17 7 9 1022.1 - 0.0
25/06:00am 13.0 9.5 7.0 67 2.9 SE 15 20 8 11 1021.9 1021.9 0.0
25/05:30am 13.3 9.8 7.1 66 3.0 SSE 15 22 8 12 1021.5 - 0.0
25/05:00am 13.0 8.4 6.6 65 3.1 SSE 20 24 11 13 1021.2 - 0.0
25/04:30am 12.9 8.4 6.0 63 3.3 SSE 19 24 10 13 1021.2 - 0.0
25/04:00am 13.2 8.5 6.1 62 3.4 SSE 20 24 11 13 1020.9 - 0.0
25/03:30am 13.8 9.4 6.4 61 3.5 SE 19 24 10 13 1020.8 - 0.0
25/03:00am 14.0 9.4 6.6 61 3.6 SE 20 30 11 16 1020.6 1020.6 0.0
25/02:30am 14.2 9.7 7.0 62 3.5 SE 20 28 11 15 1020.7 - 0.0
25/02:00am 14.8 10.4 7.6 62 3.6 SE 20 26 11 14 1020.5 - 0.0
25/01:30am 15.3 11.2 7.8 61 3.7 SE 19 28 10 15 1020.6 - 0.0
25/01:00am 15.3 11.1 7.6 60 3.8 SE 19 24 10 13 1020.5 - 0.0
25/12:30am 15.9 10.0 7.4 57 4.2 S 28 35 15 19 1020.4 - 0.0
25/12:00am 16.1 9.5 7.8 58 4.2 S 32 41 17 22 1020.2 1020.2 0.0
 
Date/Time
CDT
Temp
°C
App
Temp
°C
Dew
Point
Rel
Hum
%
Delta-T
°C
Wind Press
QNH
hPa
Press
MSL
hPa
Rain
since 9 am
mm
Dir
 
Spd
km/h
Gust
km/h
Spd
kts
Gust
kts
24/11:30pm 16.1 9.6 8.1 59 4.0 S 32 43 17 23 1020.0 - 0.0
24/11:00pm 16.4 8.6 8.1 58 4.2 S 39 50 21 27 1019.5 - 0.0
24/10:30pm 16.4 9.3 8.1 58 4.2 S 35 44 19 24 1019.1 - 0.0
24/10:00pm 16.5 9.4 8.0 57 4.3 SSE 35 48 19 26 1018.7 - 0.0
24/09:30pm 16.8 9.5 7.2 53 4.8 S 35 46 19 25 1018.1 - 0.0
24/09:00pm 17.2 9.0 8.1 55 4.6 SSE 41 56 22 30 1017.5 1017.5 0.0
24/08:30pm 17.6 9.8 8.2 54 4.8 S 39 52 21 28 1017.4 - 0.0
24/08:19pm 17.7 9.8 8.0 53 4.9 S 39 57 21 31 1017.0 - 0.0
24/08:00pm 18.0 11.3 8.0 52 5.1 S 33 44 18 24 1017.0 - 0.0
24/07:30pm 18.8 10.7 6.9 46 6.0 SSE 39 50 21 27 1016.5 - 0.0
24/07:00pm 19.8 11.7 8.5 48 5.9 S 41 54 22 29 1016.1 - 0.0
24/06:30pm 20.2 11.4 9.5 50 5.7 S 46 57 25 31 1015.2 - 0.0
24/06:00pm 21.1 11.9 9.4 47 6.2 SSE 48 63 26 34 1014.7 1014.7 0.0
24/05:38pm 21.2 12.5 9.8 48 6.1 SSE 46 65 25 35 1014.4 - 0.0
24/05:30pm 21.6 12.5 9.8 47 6.4 SSE 48 59 26 32 1014.3 - 0.0
24/05:14pm 21.6 13.3 10.1 48 6.2 S 44 69 24 37 1014.1 - 0.0
24/05:00pm 22.4 14.5 10.9 48 6.4 S 43 57 23 31 1014.1 - 0.0
24/04:30pm 22.7 14.0 11.4 49 6.3 SSE 48 63 26 34 1013.7 - 0.0
24/04:00pm 24.4 16.8 11.7 45 7.2 SSE 43 54 23 29 1013.7 - 0.0
24/03:38pm 25.5 18.5 12.4 44 7.5 S 41 57 22 31 1013.5 - 0.0
24/03:30pm 24.5 17.5 12.5 47 6.9 SE 41 54 22 29 1013.3 - 0.0
24/03:02pm 24.0 17.1 12.9 50 6.4 SE 41 59 22 32 1013.3 - 0.0
24/03:00pm 24.8 18.3 13.0 47 6.8 SE 39 54 21 29 1013.4 1013.4 0.0
24/02:30pm 24.7 19.7 13.9 51 6.4 SE 33 48 18 26 1013.9 - 0.0
24/02:01pm 25.0 19.5 13.5 48 6.7 SE 35 54 19 29 1014.1 - 0.0
24/02:00pm 24.5 18.4 13.1 49 6.6 SE 37 54 20 29 1014.1 - 0.0
24/01:34pm 25.6 19.9 11.7 42 7.9 SE 33 59 18 32 1013.6 - 0.0
24/01:30pm 24.8 18.8 12.1 45 7.3 SE 35 48 19 26 1013.8 - 0.0
24/01:19pm 25.1 18.6 11.6 42 7.7 SE 37 50 20 27 1014.0 - 0.0
24/01:00pm 24.1 18.0 9.7 40 7.9 S 32 46 17 25 1014.1 - 0.0
24/12:55pm 26.0 19.9 10.6 38 8.6 S 33 46 18 25 1014.2 - 0.0
24/12:30pm 25.3 18.4 10.4 39 8.3 SSE 37 50 20 27 1014.0 - 0.0
24/12:16pm 24.2 18.4 10.8 43 7.5 SSE 32 52 17 28 1014.4 - 0.0
24/12:00pm 24.2 17.6 11.2 44 7.3 S 37 48 20 26 1013.7 1013.7 0.0
24/11:30am 23.6 17.7 10.3 43 7.3 SSE 32 48 17 26 1014.0 - 0.0
24/11:28am 24.1 18.6 10.4 42 7.6 S 30 48 16 26 1014.2 - 0.0
24/11:00am 23.5 15.7 9.9 42 7.4 SSE 41 50 22 27 1014.0 - 0.0
24/10:30am 23.0 15.6 11.1 47 6.6 SSE 41 54 22 29 1013.4 - 0.0
24/10:00am 23.0 15.8 10.4 45 6.9 S 39 54 21 29 1013.1 - 0.0
24/09:30am 21.9 14.8 11.0 50 6.0 S 39 52 21 28 1013.0 - 0.0
24/09:00am 21.8 14.8 11.2 51 5.9 SSE 39 50 21 27 1012.8 1012.8 0.8
24/08:30am 20.8 14.3 11.7 56 5.1 S 37 52 20 28 1012.6 - 0.8
24/08:00am 20.7 14.4 12.4 59 4.7 SSE 37 46 20 25 1012.1 - 0.8
24/07:30am 19.6 14.4 13.5 68 3.5 S 33 46 18 25 1012.0 - 0.8
24/07:00am 19.1 15.2 13.3 69 3.3 S 26 35 14 19 1011.7 - 0.8
24/06:30am 19.0 16.9 14.7 76 2.5 SSE 19 26 10 14 1011.1 - 0.8
24/06:00am 19.1 15.7 14.8 76 2.5 SSE 26 37 14 20 1009.9 1009.9 0.8
24/05:30am 19.5 16.1 14.7 74 2.8 SSE 26 32 14 17 1008.7 - 0.8
24/05:00am 20.6 18.4 16.8 79 2.3 ESE 24 32 13 17 1007.5 - 0.8
24/04:30am 20.9 19.7 17.1 79 2.3 SE 19 24 10 13 1006.7 - 0.8
24/04:00am 21.6 21.5 14.0 62 4.4 N 7 15 4 8 1006.3 - 0.8
24/03:30am 22.4 22.2 13.7 58 5.1 W 7 11 4 6 1005.7 - 0.8
24/03:00am 22.8 21.5 13.8 57 5.3 WSW 13 15 7 8 1005.6 1005.6 0.8
24/02:30am 23.4 22.1 13.6 54 5.7 WNW 13 15 7 8 1005.4 - 0.8
24/02:00am 24.3 23.3 13.5 51 6.3 WNW 11 15 6 8 1005.4 - 0.8
24/01:30am 25.0 23.9 13.2 48 6.9 WNW 11 15 6 8 1005.9 - 0.8
24/01:00am 26.4 24.4 12.8 43 7.9 WNW 15 24 8 13 1006.6 - 0.8
24/12:30am 26.2 23.5 13.0 44 7.7 WSW 19 28 10 15 1007.0 - 0.8
24/12:00am 24.1 23.3 13.9 53 6.0 SW 11 19 6 10 1007.2 1007.2 0.8
 
Date/Time
CDT
Temp
°C
App
Temp
°C
Dew
Point
Rel
Hum
%
Delta-T
°C
Wind Press
QNH
hPa
Press
MSL
hPa
Rain
since 9 am
mm
Dir
 
Spd
km/h
Gust
km/h
Spd
kts
Gust
kts
23/11:30pm 23.8 23.4 14.2 55 5.7 SW 9 11 5 6 1007.7 - 0.8
23/11:00pm 24.2 24.1 14.0 53 6.0 S 7 11 4 6 1008.0 - 0.8
23/10:30pm 24.6 24.6 14.1 52 6.2 ESE 7 13 4 7 1008.1 - 0.8
23/10:00pm 24.9 23.9 14.7 53 6.1 E 13 20 7 11 1008.2 - 0.8
23/09:30pm 26.9 25.6 13.6 44 7.9 SE 13 19 7 10 1007.8 - 0.8
23/09:00pm 26.2 23.9 14.0 47 7.3 SSE 19 22 10 12 1007.7 1007.7 0.8
23/08:30pm 25.5 22.7 14.3 50 6.7 SSE 22 28 12 15 1007.2 - 0.8
23/08:00pm 27.8 28.0 15.8 48 7.4 ESE 9 11 5 6 1006.7 - 0.8
23/07:30pm 30.7 29.3 12.1 32 10.9 SW 11 15 6 8 1006.1 - 0.8
23/07:00pm 31.5 30.1 13.3 33 10.9 SW 13 19 7 10 1005.4 - 0.8
23/06:30pm 32.5 31.3 12.7 30 11.8 W 11 15 6 8 1005.3 - 0.6
23/06:00pm 31.7 30.8 12.5 31 11.4 W 9 17 5 9 1005.4 1005.4 0.6
23/05:30pm 30.8 30.4 14.0 36 10.2 NE 9 17 5 9 1005.0 - 0.6
23/05:00pm 30.7 28.5 14.8 38 9.7 NNE 20 30 11 16 1005.4 - 0.6
23/04:57pm 30.9 28.9 14.9 37 9.8 NNE 19 30 10 16 1005.5 - 0.6
23/04:30pm 25.9 23.6 16.7 57 5.7 ENE 24 35 13 19 1005.8 - 0.6
23/04:27pm 26.0 24.4 16.5 55 5.9 E 20 35 11 19 1005.9 - 0.6
23/04:00pm 26.9 25.6 16.8 54 6.3 ENE 19 22 10 12 1008.0 - 0.6
23/03:30pm 28.9 26.8 13.6 39 9.1 W 17 32 9 17 1009.1 - 0.6
23/03:00pm 28.9 26.1 14.3 40 8.8 N 22 30 12 16 1010.3 1010.3 0.6
23/02:30pm 24.3 22.7 17.5 66 4.2 ENE 22 26 12 14 1009.4 - 0.6
23/02:29pm 24.4 23.1 18.1 68 4.0 ENE 22 26 12 14 1009.5 - 0.2
23/02:00pm 29.2 25.3 12.2 35 9.9 WNW 24 32 13 17 1011.5 - 0.0
23/01:30pm 29.0 24.3 7.6 26 11.6 W 22 32 12 17 1011.9 - 0.0
23/01:00pm 28.6 25.4 8.3 28 11.1 W 15 22 8 12 1012.0 - 0.0
23/12:30pm 29.7 25.2 7.0 24 12.2 W 20 28 11 15 1012.0 - 0.0
23/12:00pm 28.6 25.0 8.3 28 11.1 ESE 17 22 9 12 1010.5 1010.5 0.0

Other Formats:

Comma delimited format used in spreadsheet applications
http://www.bom.gov.au/fwo/IDS60801/IDS60801.95666.axf

JavaScript Object Notation format (JSON) in row-major order
http://www.bom.gov.au/fwo/IDS60801/IDS60801.95666.json